Thorp, Washington
Current Conditions -  °F | °C
As of 5:53 PM on Saturday 25 Oct 2014 (Local Time) from KELN Reporting Station
Overcast Overcast  
Wind Chill: 55°   Ceiling: 2600
Heat Index: 55°   Visibility: 10mi
Dew Point: 46°   Wind: 9mph
Humidity: 72%   Direction: 100°E
Pressure: 29.44"   Gusts: NA
Location:  47.07°N, 120.67°W
Report Text: KELN 260053Z AUTO 10008KT 10SM BKN026 OVC030 13/08 A2944 RMK AO2 SLP970 T01280078
Loading
Personal Weather Stations






























Interactive Weather Map
Tropical Storm Tracking
New forecast layout! Learn more

10-Day Weather Forecast

Advertisements
Track Severe Weather on mobile